Time;durP1;ratioP1;P1;durP2;ratioP2;P2;SDS_P1;SDS_P2;PMS_P1;PMS_P2;Temp;Humidity;BMP_temperature;BMP_pressure;BME280_temperature;BME280_humidity;BME280_pressure;Samples;Min_cycle;Max_cycle;Signal;HPM_P1;HPM_P2
2023/04/04 00:00:47;;;;;;;2.53;1.77;;;;;;;;;;5018657;28;20548;-56
2023/04/04 00:03:12;;;;;;;5.90;2.83;;;;;;;;;;5018592;28;20525;-56
2023/04/04 00:05:38;;;;;;;5.35;3.00;;;;;;;;;;5018611;28;20097;-55
2023/04/04 00:08:03;;;;;;;5.90;2.53;;;;;;;;;;5017422;28;20033;-54
2023/04/04 00:10:29;;;;;;;5.50;2.50;;;;;;;;;;5018172;28;20366;-55
2023/04/04 00:12:54;;;;;;;5.00;2.15;;;;;;;;;;5018582;28;20036;-53
2023/04/04 00:15:19;;;;;;;6.38;2.85;;;;;;;;;;5017872;28;20105;-54
2023/04/04 00:17:45;;;;;;;6.90;2.50;;;;;;;;;;5018832;28;20021;-56
2023/04/04 00:20:10;;;;;;;5.80;2.53;;;;;;;;;;5016663;28;20021;-55
2023/04/04 00:22:36;;;;;;;6.55;2.78;;;;;;;;;;4999074;28;20049;-54
2023/04/04 00:25:01;;;;;;;4.30;2.20;;;;;;;;;;5017009;28;20461;-55
2023/04/04 00:27:27;;;;;;;6.80;2.65;;;;;;;;;;5018206;28;20057;-51
2023/04/04 00:29:52;;;;;;;5.28;2.47;;;;;;;;;;5018660;28;20788;-54
2023/04/04 00:32:17;;;;;;;6.72;3.03;;;;;;;;;;5018371;28;20393;-52
2023/04/04 00:34:43;;;;;;;4.50;2.15;;;;;;;;;;5018357;28;20060;-54
2023/04/04 00:37:11;;;;;;;6.60;2.85;;;;;;;;;;5018058;28;20120;-56
2023/04/04 00:39:36;;;;;;;5.15;2.38;;;;;;;;;;5018607;28;20179;-55
2023/04/04 00:42:01;;;;;;;9.07;3.05;;;;;;;;;;5018095;28;20048;-56
2023/04/04 00:44:27;;;;;;;6.53;2.63;;;;;;;;;;5018574;28;20096;-52
2023/04/04 00:46:52;;;;;;;4.60;2.22;;;;;;;;;;5017892;28;20458;-53
2023/04/04 00:49:17;;;;;;;8.20;2.70;;;;;;;;;;5018207;28;20025;-55
2023/04/04 00:51:43;;;;;;;8.57;3.38;;;;;;;;;;5018023;28;20461;-56
2023/04/04 00:54:08;;;;;;;5.88;3.03;;;;;;;;;;5018240;28;20026;-56
2023/04/04 00:56:36;;;;;;;4.85;2.35;;;;;;;;;;5018280;28;20033;-55
2023/04/04 00:59:01;;;;;;;6.38;2.90;;;;;;;;;;5018104;28;20041;-56
2023/04/04 01:01:26;;;;;;;6.75;2.70;;;;;;;;;;5018642;28;20477;-52
2023/04/04 01:03:52;;;;;;;4.93;2.40;;;;;;;;;;5021594;28;20021;-54
2023/04/04 01:06:18;;;;;;;6.60;2.90;;;;;;;;;;5020450;28;20029;-56
2023/04/04 01:08:44;;;;;;;6.15;3.05;;;;;;;;;;5021773;28;20032;-55
2023/04/04 01:11:10;;;;;;;8.02;2.53;;;;;;;;;;5021694;28;20022;-57
2023/04/04 01:13:35;;;;;;;6.45;2.65;;;;;;;;;;5021755;28;20032;-54
2023/04/04 01:16:00;;;;;;;5.97;2.67;;;;;;;;;;5021834;28;20086;-52
2023/04/04 01:18:26;;;;;;;8.10;2.50;;;;;;;;;;5022002;28;20033;-56
2023/04/04 01:20:52;;;;;;;8.30;2.95;;;;;;;;;;5021065;28;21131;-56
2023/04/04 01:23:17;;;;;;;5.10;2.50;;;;;;;;;;5021485;28;20347;-55
2023/04/04 01:25:43;;;;;;;6.35;2.67;;;;;;;;;;5021265;28;20025;-54
2023/04/04 01:28:08;;;;;;;4.40;2.50;;;;;;;;;;5021709;28;20492;-54
2023/04/04 01:30:35;;;;;;;8.25;2.95;;;;;;;;;;5021234;28;20481;-53
2023/04/04 01:33:03;;;;;;;5.15;2.58;;;;;;;;;;5021413;28;20107;-55
2023/04/04 01:35:37;;;;;;;10.43;2.50;;;;;;;;;;5019638;28;20088;-56
2023/04/04 01:38:09;;;;;;;5.05;2.95;;;;;;;;;;5021139;28;20024;-54
2023/04/04 01:40:37;;;;;;;5.20;2.67;;;;;;;;;;5021036;28;20116;-56
2023/04/04 01:43:02;;;;;;;8.18;2.58;;;;;;;;;;5021478;28;20022;-55
2023/04/04 01:45:28;;;;;;;6.78;3.10;;;;;;;;;;5020823;28;20028;-54
2023/04/04 01:47:55;;;;;;;7.07;2.67;;;;;;;;;;5021511;28;20429;-55
2023/04/04 01:50:20;;;;;;;7.95;2.72;;;;;;;;;;5020813;28;20020;-54
2023/04/04 01:52:46;;;;;;;5.43;2.70;;;;;;;;;;5021069;28;20026;-54
2023/04/04 01:55:11;;;;;;;6.72;2.83;;;;;;;;;;5020989;28;20018;-54
2023/04/04 01:57:37;;;;;;;6.28;2.72;;;;;;;;;;5020931;28;20059;-56
2023/04/04 02:00:04;;;;;;;5.40;2.22;;;;;;;;;;5021288;28;20021;-56
2023/04/04 02:02:29;;;;;;;7.55;2.97;;;;;;;;;;5020426;28;20013;-53
2023/04/04 02:04:55;;;;;;;6.78;2.30;;;;;;;;;;5021039;28;20385;-54
2023/04/04 02:07:20;;;;;;;5.18;2.70;;;;;;;;;;5020347;28;20076;-56
2023/04/04 02:09:45;;;;;;;6.32;2.70;;;;;;;;;;5019812;28;20025;-55
2023/04/04 02:12:10;;;;;;;6.15;2.80;;;;;;;;;;5020671;28;20100;-52
2023/04/04 02:14:36;;;;;;;4.30;2.58;;;;;;;;;;5019959;28;20467;-55
2023/04/04 02:17:02;;;;;;;6.32;2.60;;;;;;;;;;5020466;28;20168;-55
2023/04/04 02:19:27;;;;;;;5.28;2.33;;;;;;;;;;5020473;28;20028;-57
2023/04/04 02:21:52;;;;;;;5.95;2.80;;;;;;;;;;5020062;28;20014;-55
2023/04/04 02:24:18;;;;;;;6.15;2.28;;;;;;;;;;5020354;28;20021;-55
2023/04/04 02:26:43;;;;;;;4.90;2.47;;;;;;;;;;5020478;28;20078;-54
2023/04/04 02:29:08;;;;;;;5.63;2.70;;;;;;;;;;5020224;28;20029;-56
2023/04/04 02:31:34;;;;;;;5.45;2.70;;;;;;;;;;5020436;28;20025;-55
2023/04/04 02:33:59;;;;;;;4.30;2.67;;;;;;;;;;5019611;28;20409;-55
2023/04/04 02:36:25;;;;;;;6.13;2.85;;;;;;;;;;5034416;28;20037;-55
2023/04/04 02:38:50;;;;;;;4.32;2.70;;;;;;;;;;5019754;28;20075;-54
2023/04/04 02:41:15;;;;;;;9.25;3.45;;;;;;;;;;5020255;28;20026;-53
2023/04/04 02:43:41;;;;;;;5.75;2.78;;;;;;;;;;5019870;28;20540;-54
2023/04/04 02:46:06;;;;;;;4.50;2.58;;;;;;;;;;5019926;28;20472;-54
2023/04/04 02:48:32;;;;;;;7.20;2.67;;;;;;;;;;5017473;28;20056;-53
2023/04/04 02:50:57;;;;;;;5.82;2.92;;;;;;;;;;5020161;28;20029;-56
2023/04/04 02:53:22;;;;;;;5.55;2.63;;;;;;;;;;5020389;28;20064;-53
2023/04/04 02:55:48;;;;;;;6.53;2.53;;;;;;;;;;5019605;28;20040;-56
2023/04/04 02:58:13;;;;;;;5.65;2.72;;;;;;;;;;5020032;28;20060;-54
2023/04/04 03:00:38;;;;;;;4.03;2.35;;;;;;;;;;5019825;28;20025;-54
2023/04/04 03:03:04;;;;;;;5.47;2.58;;;;;;;;;;5020138;28;20388;-54
2023/04/04 03:05:30;;;;;;;7.80;2.95;;;;;;;;;;5019368;28;20329;-56
2023/04/04 03:07:56;;;;;;;5.47;2.75;;;;;;;;;;5019807;28;20026;-54
2023/04/04 03:10:25;;;;;;;5.07;2.85;;;;;;;;;;5019548;28;20040;-54
2023/04/04 03:12:51;;;;;;;7.15;3.60;;;;;;;;;;5019723;28;20030;-54
2023/04/04 03:15:16;;;;;;;9.45;3.05;;;;;;;;;;5019755;28;20060;-53
2023/04/04 03:17:42;;;;;;;5.43;3.00;;;;;;;;;;5019397;28;20381;-56
2023/04/04 03:20:07;;;;;;;6.07;2.92;;;;;;;;;;5019802;28;20029;-53
2023/04/04 03:22:33;;;;;;;6.30;2.65;;;;;;;;;;5019128;28;20021;-53
2023/04/04 03:24:58;;;;;;;5.53;2.92;;;;;;;;;;5019632;28;20036;-54
2023/04/04 03:27:23;;;;;;;7.57;3.50;;;;;;;;;;5019213;28;20501;-54
2023/04/04 03:29:49;;;;;;;6.28;3.30;;;;;;;;;;5020004;28;20044;-52
2023/04/04 03:32:14;;;;;;;5.32;3.17;;;;;;;;;;5019202;28;20474;-55
2023/04/04 03:34:39;;;;;;;7.85;3.03;;;;;;;;;;5019061;28;20041;-53
2023/04/04 03:37:04;;;;;;;6.00;2.72;;;;;;;;;;5018877;28;20037;-54
2023/04/04 03:39:30;;;;;;;6.13;2.88;;;;;;;;;;5018742;28;20417;-57
2023/04/04 03:41:56;;;;;;;6.80;3.53;;;;;;;;;;5018213;28;20033;-53
2023/04/04 03:44:22;;;;;;;5.28;2.80;;;;;;;;;;5018827;28;20067;-57
2023/04/04 03:46:47;;;;;;;5.30;2.97;;;;;;;;;;5019187;28;20507;-54
2023/04/04 03:49:12;;;;;;;8.70;3.70;;;;;;;;;;5018872;28;20032;-53
2023/04/04 03:51:37;;;;;;;6.30;3.20;;;;;;;;;;5018958;28;20444;-51
2023/04/04 03:54:03;;;;;;;10.15;3.63;;;;;;;;;;5018955;28;20024;-55
2023/04/04 03:56:29;;;;;;;6.50;2.90;;;;;;;;;;5019269;28;20029;-53
2023/04/04 03:58:55;;;;;;;6.20;3.38;;;;;;;;;;5018792;28;20021;-52
2023/04/04 04:01:20;;;;;;;5.32;2.83;;;;;;;;;;5018902;28;20022;-55
2023/04/04 04:03:46;;;;;;;10.70;3.47;;;;;;;;;;5019027;28;20036;-56
2023/04/04 04:06:11;;;;;;;5.68;3.05;;;;;;;;;;5018732;28;20083;-54
2023/04/04 04:08:37;;;;;;;5.13;2.85;;;;;;;;;;5018846;28;20028;-54
2023/04/04 04:11:05;;;;;;;6.78;3.22;;;;;;;;;;5017138;28;20075;-56
2023/04/04 04:13:31;;;;;;;7.45;2.95;;;;;;;;;;5016310;28;20033;-54
2023/04/04 04:15:56;;;;;;;7.80;3.53;;;;;;;;;;5018545;28;20056;-53
2023/04/04 04:18:22;;;;;;;6.90;2.78;;;;;;;;;;5018567;28;20026;-56
2023/04/04 04:20:47;;;;;;;7.45;3.58;;;;;;;;;;5018334;28;20033;-52
2023/04/04 04:23:12;;;;;;;6.20;3.10;;;;;;;;;;5018448;28;20029;-52
2023/04/04 04:25:37;;;;;;;14.38;3.40;;;;;;;;;;5018839;28;20017;-56
2023/04/04 04:28:03;;;;;;;7.13;3.53;;;;;;;;;;5018269;28;20531;-52
2023/04/04 04:30:28;;;;;;;6.60;3.00;;;;;;;;;;5017289;28;20083;-56
2023/04/04 04:32:53;;;;;;;5.43;3.40;;;;;;;;;;5018211;28;20017;-51
2023/04/04 04:35:19;;;;;;;6.47;3.67;;;;;;;;;;5018826;28;20357;-56
2023/04/04 04:37:44;;;;;;;7.55;4.05;;;;;;;;;;5020967;28;20033;-53
2023/04/04 04:40:10;;;;;;;5.45;2.63;;;;;;;;;;5022558;28;20020;-54
2023/04/04 04:42:35;;;;;;;12.73;3.20;;;;;;;;;;5022367;28;20013;-56
2023/04/04 04:45:00;;;;;;;8.07;3.05;;;;;;;;;;5021068;28;20476;-55
2023/04/04 04:47:26;;;;;;;9.63;4.70;;;;;;;;;;5022618;28;20025;-55
2023/04/04 04:49:51;;;;;;;7.13;3.05;;;;;;;;;;5020995;28;20048;-55
2023/04/04 04:52:18;;;;;;;7.15;3.30;;;;;;;;;;5022437;28;20092;-53
2023/04/04 04:54:43;;;;;;;6.40;2.80;;;;;;;;;;5020816;28;20548;-55
2023/04/04 04:57:08;;;;;;;6.22;2.90;;;;;;;;;;5022342;28;20035;-55
2023/04/04 04:59:34;;;;;;;5.38;2.80;;;;;;;;;;5021882;28;20017;-56
2023/04/04 05:01:59;;;;;;;4.85;2.70;;;;;;;;;;5022217;28;20116;-54
2023/04/04 05:04:26;;;;;;;10.32;3.88;;;;;;;;;;5021736;28;20032;-54
2023/04/04 05:06:51;;;;;;;6.80;3.10;;;;;;;;;;5022457;28;20433;-54
2023/04/04 05:09:16;;;;;;;5.40;3.00;;;;;;;;;;5021775;28;20029;-56
2023/04/04 05:11:41;;;;;;;8.38;3.53;;;;;;;;;;5021900;28;20025;-54
2023/04/04 05:14:07;;;;;;;5.68;2.80;;;;;;;;;;5021772;28;20014;-57
2023/04/04 05:16:33;;;;;;;9.55;2.90;;;;;;;;;;5021612;28;20785;-52
2023/04/04 05:18:58;;;;;;;7.50;3.10;;;;;;;;;;5021865;28;20076;-56
2023/04/04 05:21:23;;;;;;;7.93;2.80;;;;;;;;;;5021102;28;20370;-52
2023/04/04 05:23:49;;;;;;;5.20;3.10;;;;;;;;;;5021750;28;20032;-57
2023/04/04 05:26:14;;;;;;;9.45;3.10;;;;;;;;;;5021247;28;20035;-54
2023/04/04 05:28:39;;;;;;;10.10;2.85;;;;;;;;;;5021684;28;20131;-53
2023/04/04 05:31:05;;;;;;;5.07;2.75;;;;;;;;;;5021231;28;20482;-52
2023/04/04 05:33:30;;;;;;;10.75;2.65;;;;;;;;;;5021115;28;20329;-53
2023/04/04 05:35:56;;;;;;;4.20;2.63;;;;;;;;;;5021602;28;20631;-54
2023/04/04 05:38:21;;;;;;;11.38;3.08;;;;;;;;;;5021308;28;20039;-54
2023/04/04 05:40:46;;;;;;;5.97;2.65;;;;;;;;;;5021316;28;20057;-55
2023/04/04 05:43:12;;;;;;;5.38;3.05;;;;;;;;;;5021102;28;20025;-54
2023/04/04 05:45:37;;;;;;;5.70;2.63;;;;;;;;;;5021344;28;20018;-56
2023/04/04 05:48:03;;;;;;;4.60;2.33;;;;;;;;;;5016947;28;20026;-54
2023/04/04 05:50:28;;;;;;;6.22;3.08;;;;;;;;;;5014843;28;20029;-55
2023/04/04 05:52:54;;;;;;;5.57;2.80;;;;;;;;;;5023560;28;20021;-55
2023/04/04 05:55:20;;;;;;;5.75;2.85;;;;;;;;;;5025077;28;20493;-55
2023/04/04 05:57:48;;;;;;;6.10;3.00;;;;;;;;;;5020382;28;20107;-56
2023/04/04 06:00:14;;;;;;;6.40;2.75;;;;;;;;;;5017400;28;20018;-57
2023/04/04 06:02:39;;;;;;;4.57;2.40;;;;;;;;;;5030425;28;20032;-58
2023/04/04 06:05:05;;;;;;;6.80;3.30;;;;;;;;;;5025941;28;20233;-57
2023/04/04 06:07:30;;;;;;;7.30;3.17;;;;;;;;;;5020498;28;20368;-55
2023/04/04 06:09:56;;;;;;;5.97;2.72;;;;;;;;;;5014233;28;20112;-55
2023/04/04 06:12:21;;;;;;;4.78;2.60;;;;;;;;;;5012904;28;20028;-52
2023/04/04 06:14:47;;;;;;;6.97;3.15;;;;;;;;;;5022287;28;20483;-54
2023/04/04 06:17:12;;;;;;;4.97;2.55;;;;;;;;;;5022515;28;20023;-56
2023/04/04 06:19:37;;;;;;;7.40;2.70;;;;;;;;;;5024881;28;20180;-57
2023/04/04 06:22:02;;;;;;;5.63;2.85;;;;;;;;;;5025338;28;20026;-56
2023/04/04 06:24:28;;;;;;;4.75;2.80;;;;;;;;;;5023269;28;20510;-53
2023/04/04 06:26:53;;;;;;;6.97;3.10;;;;;;;;;;5023237;28;20033;-54
2023/04/04 06:29:18;;;;;;;5.90;2.97;;;;;;;;;;5025527;28;20026;-57
2023/04/04 06:31:44;;;;;;;7.15;2.47;;;;;;;;;;5019706;28;20025;-57
2023/04/04 06:34:09;;;;;;;10.60;2.95;;;;;;;;;;5022509;28;20123;-61
2023/04/04 06:36:34;;;;;;;6.57;2.63;;;;;;;;;;5021414;28;20052;-60
2023/04/04 06:39:00;;;;;;;5.57;3.10;;;;;;;;;;5018049;28;20014;-59
2023/04/04 06:41:26;;;;;;;6.28;2.70;;;;;;;;;;5016454;28;21169;-60
2023/04/04 06:43:51;;;;;;;6.35;2.67;;;;;;;;;;5019458;28;20021;-56
2023/04/04 06:46:17;;;;;;;5.18;3.28;;;;;;;;;;5011275;28;20567;-58
2023/04/04 06:48:42;;;;;;;8.60;3.20;;;;;;;;;;5020287;28;20113;-59
2023/04/04 06:51:07;;;;;;;6.95;3.25;;;;;;;;;;5020013;28;20029;-53
2023/04/04 06:53:33;;;;;;;8.15;3.53;;;;;;;;;;5020291;28;20030;-56
2023/04/04 06:55:58;;;;;;;5.38;3.08;;;;;;;;;;5020427;28;20053;-54
2023/04/04 06:58:24;;;;;;;6.15;2.60;;;;;;;;;;5018744;28;20079;-53
2023/04/04 07:00:50;;;;;;;8.20;3.08;;;;;;;;;;5019754;28;20044;-55
2023/04/04 07:03:15;;;;;;;6.30;3.15;;;;;;;;;;5018694;28;20033;-56
2023/04/04 07:05:41;;;;;;;5.97;3.00;;;;;;;;;;5020847;28;20463;-54
2023/04/04 07:08:06;;;;;;;6.25;3.38;;;;;;;;;;5019739;28;20033;-54
2023/04/04 07:10:32;;;;;;;5.57;2.97;;;;;;;;;;5017421;28;20041;-54
2023/04/04 07:12:57;;;;;;;7.38;2.83;;;;;;;;;;5020248;28;20105;-51
2023/04/04 07:15:22;;;;;;;12.60;3.40;;;;;;;;;;5019801;28;20068;-53
2023/04/04 07:17:48;;;;;;;5.40;3.17;;;;;;;;;;5019795;28;20503;-51
2023/04/04 07:20:13;;;;;;;9.18;3.28;;;;;;;;;;5019596;28;20107;-50
2023/04/04 07:22:39;;;;;;;5.22;3.05;;;;;;;;;;5020104;28;20035;-53
2023/04/04 07:25:05;;;;;;;6.20;2.92;;;;;;;;;;4996522;28;20033;-53
2023/04/04 07:27:31;;;;;;;6.93;3.17;;;;;;;;;;5013301;28;20041;-51
2023/04/04 07:29:56;;;;;;;6.63;3.63;;;;;;;;;;4996506;28;20046;-54
2023/04/04 07:32:22;;;;;;;3.80;2.65;;;;;;;;;;4996843;28;20084;-50
2023/04/04 07:34:48;;;;;;;5.03;3.00;;;;;;;;;;4996171;28;20132;-49
2023/04/04 07:37:13;;;;;;;6.25;2.60;;;;;;;;;;4996928;28;20045;-55
2023/04/04 07:39:40;;;;;;;7.20;2.70;;;;;;;;;;4996243;28;20041;-51
2023/04/04 07:42:06;;;;;;;4.63;2.50;;;;;;;;;;4996986;28;20032;-49
2023/04/04 07:44:31;;;;;;;5.07;2.78;;;;;;;;;;5013367;28;20068;-46
2023/04/04 07:46:56;;;;;;;4.97;2.88;;;;;;;;;;5005559;28;20037;-49
2023/04/04 07:49:22;;;;;;;5.47;2.65;;;;;;;;;;4996781;28;20029;-49
2023/04/04 07:51:47;;;;;;;4.22;2.45;;;;;;;;;;4996389;28;20042;-48
2023/04/04 07:54:13;;;;;;;7.07;2.95;;;;;;;;;;4980292;28;20022;-52
2023/04/04 07:56:38;;;;;;;7.22;3.00;;;;;;;;;;5012438;28;20033;-52
2023/04/04 07:59:03;;;;;;;4.53;2.75;;;;;;;;;;5029238;28;20439;-51
2023/04/04 08:01:29;;;;;;;5.95;2.72;;;;;;;;;;5055154;28;20028;-48
2023/04/04 08:03:55;;;;;;;7.28;2.80;;;;;;;;;;5055938;28;20561;-51
2023/04/04 08:06:21;;;;;;;5.20;2.50;;;;;;;;;;5038637;28;20031;-53
2023/04/04 08:08:47;;;;;;;3.83;2.75;;;;;;;;;;5055480;28;20526;-52
2023/04/04 08:11:12;;;;;;;5.43;2.65;;;;;;;;;;5055094;28;20050;-56
2023/04/04 08:13:37;;;;;;;7.22;2.70;;;;;;;;;;5055182;28;20063;-53
2023/04/04 08:16:03;;;;;;;6.32;2.90;;;;;;;;;;5022085;28;20415;-52
2023/04/04 08:18:28;;;;;;;6.18;2.90;;;;;;;;;;5055577;28;20162;-53
2023/04/04 08:20:54;;;;;;;6.10;2.80;;;;;;;;;;5055292;28;20116;-51
2023/04/04 08:23:19;;;;;;;5.40;3.35;;;;;;;;;;5053783;28;20524;-52
2023/04/04 08:25:45;;;;;;;5.80;3.38;;;;;;;;;;5035856;28;20033;-51
2023/04/04 08:28:11;;;;;;;7.72;3.00;;;;;;;;;;5035364;28;20403;-52
2023/04/04 08:30:36;;;;;;;5.22;2.65;;;;;;;;;;5035651;28;20020;-50
2023/04/04 08:33:01;;;;;;;6.68;3.50;;;;;;;;;;5023608;28;20033;-52
2023/04/04 08:35:27;;;;;;;4.18;2.33;;;;;;;;;;5027594;28;20065;-53
2023/04/04 08:37:52;;;;;;;3.90;2.20;;;;;;;;;;5039016;28;20035;-51
2023/04/04 08:40:17;;;;;;;8.73;2.72;;;;;;;;;;5038505;28;20052;-53
2023/04/04 08:42:45;;;;;;;6.30;2.72;;;;;;;;;;5036013;28;20037;-53
2023/04/04 08:45:11;;;;;;;8.15;2.95;;;;;;;;;;5038360;28;20017;-49
2023/04/04 08:47:37;;;;;;;7.88;2.58;;;;;;;;;;5022680;28;20045;-55
2023/04/04 08:50:04;;;;;;;4.28;2.53;;;;;;;;;;5018527;28;20028;-55
2023/04/04 08:52:30;;;;;;;5.97;2.50;;;;;;;;;;5016938;28;20026;-54
2023/04/04 08:54:56;;;;;;;21.17;9.73;;;;;;;;;;5019060;28;20018;-51
2023/04/04 08:57:22;;;;;;;11.85;3.13;;;;;;;;;;5018609;28;20116;-54
2023/04/04 08:59:48;;;;;;;13.52;5.40;;;;;;;;;;5011395;28;20592;-53
2023/04/04 09:02:15;;;;;;;6.63;2.75;;;;;;;;;;5019056;28;20029;-56
2023/04/04 09:04:41;;;;;;;8.07;3.40;;;;;;;;;;5030086;28;20170;-57
2023/04/04 09:07:08;;;;;;;5.85;3.03;;;;;;;;;;5026177;28;20084;-53
2023/04/04 09:09:34;;;;;;;7.82;3.00;;;;;;;;;;5023974;28;20110;-56
2023/04/04 09:12:00;;;;;;;6.85;2.65;;;;;;;;;;5022486;28;20102;-54
2023/04/04 09:14:26;;;;;;;8.30;3.40;;;;;;;;;;5016542;28;20025;-55
2023/04/04 09:16:52;;;;;;;6.40;2.95;;;;;;;;;;5020049;28;20473;-53
2023/04/04 09:19:17;;;;;;;9.07;3.35;;;;;;;;;;5011043;28;20140;-53
2023/04/04 09:21:46;;;;;;;5.97;2.70;;;;;;;;;;5022630;28;20108;-53
2023/04/04 09:24:12;;;;;;;10.25;3.20;;;;;;;;;;5026213;28;20017;-54
2023/04/04 09:26:47;;;;;;;5.72;2.78;;;;;;;;;;5026847;28;20060;-53
2023/04/04 09:29:13;;;;;;;3.78;2.65;;;;;;;;;;5026935;28;20559;-55
2023/04/04 09:31:38;;;;;;;4.25;2.80;;;;;;;;;;5025659;28;20033;-57
2023/04/04 09:34:04;;;;;;;5.13;3.10;;;;;;;;;;5010254;28;20042;-53
2023/04/04 09:36:30;;;;;;;10.57;2.88;;;;;;;;;;5024101;28;20591;-55
2023/04/04 09:38:56;;;;;;;4.30;2.80;;;;;;;;;;5026765;28;20029;-51
2023/04/04 09:41:21;;;;;;;5.43;2.70;;;;;;;;;;5026321;28;20069;-55
2023/04/04 09:43:47;;;;;;;7.18;2.97;;;;;;;;;;5026428;28;20138;-54
2023/04/04 09:46:14;;;;;;;8.70;3.05;;;;;;;;;;5023909;28;20030;-51
2023/04/04 09:48:40;;;;;;;13.55;3.53;;;;;;;;;;5019083;28;20046;-52
2023/04/04 09:51:06;;;;;;;8.82;3.00;;;;;;;;;;5027907;28;20021;-55
2023/04/04 09:53:36;;;;;;;6.10;2.78;;;;;;;;;;5024726;28;20017;-56
2023/04/04 09:56:01;;;;;;;3.90;2.60;;;;;;;;;;5010642;28;20021;-56
2023/04/04 09:58:31;;;;;;;5.85;2.83;;;;;;;;;;5022109;28;20513;-51
2023/04/04 10:01:00;;;;;;;9.32;2.42;;;;;;;;;;5024533;28;20027;-55
2023/04/04 10:03:26;;;;;;;;;;;;;;;;;;5023160;28;20764;-56
2023/04/04 10:06:04;;;;;;;8.77;2.60;;;;;;;;;;5008087;28;20213;-57
2023/04/04 10:08:30;;;;;;;5.72;2.42;;;;;;;;;;5010245;28;20034;-54
2023/04/04 10:10:57;;;;;;;6.25;2.95;;;;;;;;;;5006470;28;20021;-56
2023/04/04 10:13:27;;;;;;;6.93;3.10;;;;;;;;;;5017352;28;20063;-58
2023/04/04 10:15:53;;;;;;;6.45;2.60;;;;;;;;;;5023552;28;20025;-55
2023/04/04 10:18:20;;;;;;;6.88;3.40;;;;;;;;;;5020335;28;20033;-54
2023/04/04 10:20:47;;;;;;;13.80;2.90;;;;;;;;;;5021271;28;20393;-55
2023/04/04 10:23:14;;;;;;;5.65;2.78;;;;;;;;;;5023103;28;20141;-56
2023/04/04 10:25:39;;;;;;;6.15;2.72;;;;;;;;;;5023411;28;20029;-56
2023/04/04 10:28:05;;;;;;;6.50;3.13;;;;;;;;;;5021949;28;20480;-52
2023/04/04 10:30:35;;;;;;;6.60;3.45;;;;;;;;;;5019934;28;20033;-52
2023/04/04 10:33:03;;;;;;;5.78;3.10;;;;;;;;;;5022978;28;20031;-52
2023/04/04 10:35:30;;;;;;;6.18;2.72;;;;;;;;;;5033771;28;20081;-54
2023/04/04 10:37:55;;;;;;;6.53;3.00;;;;;;;;;;5024631;28;20025;-54
2023/04/04 10:40:23;;;;;;;9.52;3.03;;;;;;;;;;5019790;28;20517;-55
2023/04/04 10:42:48;;;;;;;7.80;3.05;;;;;;;;;;5020478;28;20025;-51
2023/04/04 10:45:14;;;;;;;8.65;2.83;;;;;;;;;;5021665;28;20079;-54
2023/04/04 10:47:40;;;;;;;4.45;2.80;;;;;;;;;;5020191;28;20053;-55
2023/04/04 10:50:08;;;;;;;7.95;2.78;;;;;;;;;;5024499;28;20109;-53
2023/04/04 10:52:35;;;;;;;5.25;3.40;;;;;;;;;;5041913;28;20076;-54
2023/04/04 10:55:03;;;;;;;5.80;3.10;;;;;;;;;;5046703;28;20032;-52
2023/04/04 10:57:28;;;;;;;6.97;2.97;;;;;;;;;;5050376;28;20524;-52
2023/04/04 11:00:09;;;;;;;12.18;3.17;;;;;;;;;;5040878;28;20033;-56
2023/04/04 11:02:47;;;;;;;5.82;2.85;;;;;;;;;;5041195;28;20176;-55
2023/04/04 11:05:21;;;;;;;6.32;2.65;;;;;;;;;;5040336;28;20036;-56
2023/04/04 11:07:47;;;;;;;6.07;2.72;;;;;;;;;;5038071;28;20049;-53
2023/04/04 11:10:20;;;;;;;4.35;2.63;;;;;;;;;;5037623;28;20071;-50
2023/04/04 11:12:46;;;;;;;2.80;2.08;;;;;;;;;;5046434;28;20036;-53
2023/04/04 11:15:13;;;;;;;5.15;2.70;;;;;;;;;;5045434;28;20021;-54
2023/04/04 11:17:47;;;;;;;5.80;2.63;;;;;;;;;;5024328;28;20047;-55
2023/04/04 11:20:39;;;;;;;4.57;2.55;;;;;;;;;;5036087;28;20025;-52
2023/04/04 11:23:05;;;;;;;5.13;2.90;;;;;;;;;;4994101;28;20038;-52
2023/04/04 11:25:31;;;;;;;5.30;2.58;;;;;;;;;;4981011;28;20031;-51
2023/04/04 11:27:57;;;;;;;4.38;2.22;;;;;;;;;;4980545;28;20038;-54
2023/04/04 11:30:23;;;;;;;6.28;2.63;;;;;;;;;;4980884;28;20056;-51
2023/04/04 11:32:49;;;;;;;4.65;2.47;;;;;;;;;;4982203;28;20034;-53
2023/04/04 11:35:14;;;;;;;4.28;2.65;;;;;;;;;;4976791;28;20156;-53
2023/04/04 11:37:52;;;;;;;4.90;2.60;;;;;;;;;;4979035;28;20038;-52
2023/04/04 11:40:18;;;;;;;4.38;2.50;;;;;;;;;;4978858;28;20034;-54
2023/04/04 11:42:43;;;;;;;13.10;3.03;;;;;;;;;;4976596;28;20489;-55
2023/04/04 11:45:09;;;;;;;6.22;2.42;;;;;;;;;;4978595;28;20586;-55
2023/04/04 11:47:35;;;;;;;6.72;2.70;;;;;;;;;;4977999;28;20446;-57
2023/04/04 11:50:01;;;;;;;3.90;2.60;;;;;;;;;;4982162;28;20061;-54
2023/04/04 11:52:32;;;;;;;8.27;2.65;;;;;;;;;;4982070;28;20018;-54
2023/04/04 11:54:58;;;;;;;4.07;2.25;;;;;;;;;;4982738;28;20076;-55
2023/04/04 11:57:23;;;;;;;7.85;2.40;;;;;;;;;;4981895;28;20489;-55
2023/04/04 11:59:50;;;;;;;4.78;2.90;;;;;;;;;;5001311;28;20033;-54
2023/04/04 12:02:18;;;;;;;8.65;2.60;;;;;;;;;;5024326;28;20018;-55
2023/04/04 12:04:44;;;;;;;6.03;2.10;;;;;;;;;;5018533;28;20075;-58
2023/04/04 12:07:11;;;;;;;3.08;2.10;;;;;;;;;;5019056;28;20033;-57
2023/04/04 12:09:37;;;;;;;3.40;2.00;;;;;;;;;;5024576;28;20029;-57
2023/04/04 12:12:02;;;;;;;6.57;2.13;;;;;;;;;;5024308;28;20186;-55
2023/04/04 12:14:27;;;;;;;3.92;2.45;;;;;;;;;;5024489;28;20017;-53
2023/04/04 12:16:54;;;;;;;9.77;2.70;;;;;;;;;;5021229;28;20037;-57
2023/04/04 12:19:21;;;;;;;6.07;2.33;;;;;;;;;;5024348;28;20083;-55
2023/04/04 12:21:47;;;;;;;4.43;2.53;;;;;;;;;;5024208;28;20029;-58
2023/04/04 12:24:13;;;;;;;4.13;1.90;;;;;;;;;;5012518;28;20466;-58
2023/04/04 12:26:40;;;;;;;6.60;2.30;;;;;;;;;;5022190;28;20075;-57
2023/04/04 12:29:06;;;;;;;4.22;1.95;;;;;;;;;;5023855;28;20024;-57
2023/04/04 12:31:32;;;;;;;5.20;2.40;;;;;;;;;;5020289;28;20060;-54
2023/04/04 12:33:58;;;;;;;10.82;2.80;;;;;;;;;;5021375;28;20045;-58
2023/04/04 12:36:24;;;;;;;7.50;2.60;;;;;;;;;;5016711;28;20332;-58
2023/04/04 12:39:00;;;;;;;8.10;2.30;;;;;;;;;;5022849;28;20087;-57
2023/04/04 12:41:26;;;;;;;12.00;2.90;;;;;;;;;;5019762;28;20484;-55
2023/04/04 12:43:58;;;;;;;9.52;2.35;;;;;;;;;;5022102;28;20026;-54
2023/04/04 12:46:25;;;;;;;5.72;2.53;;;;;;;;;;5023517;28;20190;-53
2023/04/04 12:48:51;;;;;;;11.48;2.30;;;;;;;;;;5022590;28;20088;-54
2023/04/04 12:51:17;;;;;;;9.90;2.50;;;;;;;;;;5021143;28;20017;-55
2023/04/04 12:53:50;;;;;;;9.98;2.92;;;;;;;;;;5017934;28;20033;-51
2023/04/04 12:56:15;;;;;;;4.78;2.38;;;;;;;;;;5019119;28;20461;-50
2023/04/04 12:58:45;;;;;;;7.78;2.45;;;;;;;;;;5017111;28;20030;-53
2023/04/04 13:01:10;;;;;;;;;;;;;;;;;;5021721;28;20049;-52
2023/04/04 13:03:36;;;;;;;8.05;2.15;;;;;;;;;;5022303;28;19960;-51
2023/04/04 13:06:02;;;;;;;5.97;2.55;;;;;;;;;;5015428;28;20053;-55
2023/04/04 13:08:27;;;;;;;5.65;2.28;;;;;;;;;;5018480;28;20529;-51
2023/04/04 13:11:04;;;;;;;4.43;2.08;;;;;;;;;;5020269;28;20029;-52
2023/04/04 13:13:33;;;;;;;11.85;2.63;;;;;;;;;;5018045;28;20087;-54
2023/04/04 13:15:58;;;;;;;7.25;2.53;;;;;;;;;;5019543;28;20025;-52
2023/04/04 13:18:25;;;;;;;16.80;2.72;;;;;;;;;;5021595;28;20041;-57
2023/04/04 13:20:53;;;;;;;5.38;2.40;;;;;;;;;;5020656;28;20029;-56
2023/04/04 13:23:20;;;;;;;7.03;3.07;;;;;;;;;;5027257;28;20397;-53
2023/04/04 13:25:45;;;;;;;6.95;4.03;;;;;;;;;;5027584;28;20266;-55
2023/04/04 13:28:11;;;;;;;6.15;2.50;;;;;;;;;;5025994;28;20436;-56
2023/04/04 13:30:37;;;;;;;7.50;2.63;;;;;;;;;;5025370;28;20040;-54
2023/04/04 13:33:02;;;;;;;3.78;2.30;;;;;;;;;;5026503;28;20039;-55
2023/04/04 13:35:28;;;;;;;5.47;2.22;;;;;;;;;;5026925;28;20076;-57
2023/04/04 13:37:53;;;;;;;4.45;2.40;;;;;;;;;;5044324;28;20070;-54
2023/04/04 13:40:18;;;;;;;5.43;2.40;;;;;;;;;;5033468;28;20061;-58
2023/04/04 13:42:44;;;;;;;4.05;2.03;;;;;;;;;;5026744;28;20104;-57
2023/04/04 13:45:09;;;;;;;7.82;2.63;;;;;;;;;;5017210;28;20026;-56
2023/04/04 13:47:35;;;;;;;5.28;2.20;;;;;;;;;;5010704;28;20033;-50
2023/04/04 13:50:00;;;;;;;7.57;2.20;;;;;;;;;;5023055;28;20060;-51
2023/04/04 13:52:26;;;;;;;4.97;2.40;;;;;;;;;;5026440;28;20059;-51
2023/04/04 13:54:51;;;;;;;4.88;2.17;;;;;;;;;;5024496;28;20029;-56
2023/04/04 13:57:16;;;;;;;7.93;2.28;;;;;;;;;;5026294;28;20030;-53
2023/04/04 13:59:41;;;;;;;10.55;3.42;;;;;;;;;;5028045;28;20075;-53
2023/04/04 14:02:08;;;;;;;3.72;2.33;;;;;;;;;;5030181;28;20013;-55
2023/04/04 14:04:33;;;;;;;9.95;3.08;;;;;;;;;;5026853;28;20018;-54
2023/04/04 14:06:58;;;;;;;6.45;2.30;;;;;;;;;;5025842;28;20425;-55
2023/04/04 14:09:23;;;;;;;5.63;2.65;;;;;;;;;;5023657;28;20025;-53
2023/04/04 14:11:49;;;;;;;7.30;2.55;;;;;;;;;;5017322;28;20037;-54
2023/04/04 14:14:14;;;;;;;16.02;2.97;;;;;;;;;;5023087;28;20471;-57
2023/04/04 14:16:40;;;;;;;6.80;2.40;;;;;;;;;;5020077;28;20033;-57
2023/04/04 14:19:05;;;;;;;11.77;2.28;;;;;;;;;;5023305;28;20040;-51
2023/04/04 14:21:31;;;;;;;7.28;2.30;;;;;;;;;;5015641;28;20378;-53
2023/04/04 14:23:56;;;;;;;5.78;1.92;;;;;;;;;;5024866;28;20084;-53
2023/04/04 14:26:21;;;;;;;4.28;2.00;;;;;;;;;;5024094;28;20404;-53
2023/04/04 14:28:47;;;;;;;3.97;2.20;;;;;;;;;;5023586;28;20049;-54
2023/04/04 14:31:12;;;;;;;10.98;1.90;;;;;;;;;;5022919;28;20139;-52
2023/04/04 14:33:38;;;;;;;6.22;2.10;;;;;;;;;;5014972;28;20075;-53
2023/04/04 14:36:03;;;;;;;4.00;2.20;;;;;;;;;;5023491;28;20726;-50